Time;durP1;ratioP1;P1;durP2;ratioP2;P2;SDS_P1;SDS_P2;PMS_P1;PMS_P2;Temp;Humidity;BMP_temperature;BMP_pressure;BME280_temperature;BME280_humidity;BME280_pressure;Samples;Min_cycle;Max_cycle;Signal;HPM_P1;HPM_P2
2021/12/22 00:01:14;;;;;;;;;;;;;;;;;;5051371;28;1284;-81
2021/12/22 00:03:44;;;;;;;;;;;;;;;;;;5064985;28;1994;-80
2021/12/22 00:06:10;;;;;;;;;;;;;;;;;;5068246;28;1195;-82
2021/12/22 00:08:35;;;;;;;;;;;;;;;;;;5066127;28;1178;-82
2021/12/22 00:11:00;;;;;;;;;;;;;;;;;;5066787;28;1286;-81
2021/12/22 00:13:26;;;;;;;;;;;;;;;;;;5050168;28;1177;-81
2021/12/22 00:15:51;;;;;;;;;;;;;;;;;;5047861;28;1229;-81
2021/12/22 00:18:16;;;;;;;;;;;;;;;;;;5048187;28;1298;-82
2021/12/22 00:20:41;;;;;;;;;;;;;;;;;;5049484;28;1160;-82
2021/12/22 00:23:07;;;;;;;;;;;;;;;;;;5050310;28;1941;-81
2021/12/22 00:25:32;;;;;;;;;;;;;;;;;;5065343;28;1192;-82
2021/12/22 00:27:58;;;;;;;;;;;;;;;;;;5066649;28;1264;-82
2021/12/22 00:30:27;;;;;;;;;;;;;;;;;;5064651;28;1160;-82
2021/12/22 00:32:55;;;;;;;;;;;;;;;;;;5064639;28;1431;-81
2021/12/22 00:35:29;;;;;;;;;;;;;;;;;;5047499;28;1295;-82
2021/12/22 00:37:55;;;;;;;;;;;;;;;;;;5050893;28;1204;-82
2021/12/22 00:40:29;;;;;;;;;;;;;;;;;;5050564;28;1342;-81
2021/12/22 00:42:54;;;;;;;;;;;;;;;;;;5064178;28;1973;-81
2021/12/22 00:45:23;;;;;;;;;;;;;;;;;;5048389;28;1228;-81
2021/12/22 00:47:49;;;;;;;;;;;;;;;;;;5064942;28;1256;-82
2021/12/22 00:50:15;;;;;;;;;;;;;;;;;;5069222;28;1145;-82
2021/12/22 00:52:40;;;;;;;;;;;;;;;;;;5086659;28;1208;-82
2021/12/22 00:55:06;;;;;;;;;;;;;;;;;;5069187;28;1447;-82
2021/12/22 00:57:33;;;;;;;;;;;;;;;;;;5068297;28;1239;-82
2021/12/22 00:59:58;;;;;;;;;;;;;;;;;;5050627;28;1318;-81
2021/12/22 01:02:29;;;;;;;;;;;;;;;;;;5086566;28;1951;-81
2021/12/22 01:04:55;;;;;;;;;;;;;;;;;;5049533;28;1229;-81
2021/12/22 01:07:20;;;;;;;;;;;;;;;;;;5051770;28;1290;-81
2021/12/22 01:09:46;;;;;;;;;;;;;;;;;;5068671;28;1295;-82
2021/12/22 01:12:11;;;;;;;;;;;;;;;;;;5069507;28;1209;-82
2021/12/22 01:14:38;;;;;;;;;;;;;;;;;;5049040;28;1262;-81
2021/12/22 01:17:09;;;;;;;;;;;;;;;;;;5067869;28;1353;-82
2021/12/22 01:19:45;;;;;;;;;;;;;;;;;;5086397;28;981;-81
2021/12/22 01:24:48;;;;;;;;;;;;;;;;;;5086253;28;1096;-81
2021/12/22 01:27:17;;;;;;;;;;;;;;;;;;5068346;28;1313;-82
2021/12/22 01:29:43;;;;;;;;;;;;;;;;;;5066205;28;1104;-82
2021/12/22 01:32:11;;;;;;;;;;;;;;;;;;5066547;28;1309;-82
2021/12/22 01:34:36;;;;;;;;;;;;;;;;;;5051465;28;1208;-81
2021/12/22 01:37:01;;;;;;;;;;;;;;;;;;5086028;28;1152;-82
2021/12/22 01:39:26;;;;;;;;;;;;;;;;;;5087305;28;1180;-82
2021/12/22 01:41:52;;;;;;;;;;;;;;;;;;5068393;28;1961;-82
2021/12/22 01:44:33;;;;;;;;;;;;;;;;;;5066118;28;1230;-82
2021/12/22 01:50:06;;;;;;;;;;;;;;;;;;5085337;28;1085;-81
2021/12/22 01:52:37;;;;;;;;;;;;;;;;;;5068000;28;1278;-81
2021/12/22 01:55:13;;;;;;;;;;;;;;;;;;5050119;28;1384;-81
2021/12/22 01:57:47;;;;;;;;;;;;;;;;;;5083401;28;1176;-81
2021/12/22 02:00:13;;;;;;;;;;;;;;;;;;5084719;28;1193;-81
2021/12/22 02:02:39;;;;;;;;;;;;;;;;;;5065383;28;1897;-81
2021/12/22 02:05:04;;;;;;;;;;;;;;;;;;5067926;28;1342;-81
2021/12/22 02:07:29;;;;;;;;;;;;;;;;;;5069894;28;1247;-81
2021/12/22 02:12:20;;;;;;;;;;;;;;;;;;5086050;28;1137;-82
2021/12/22 02:14:46;;;;;;;;;;;;;;;;;;5065273;28;1112;-82
2021/12/22 02:17:12;;;;;;;;;;;;;;;;;;5066605;28;1196;-81
2021/12/22 02:19:44;;;;;;;;;;;;;;;;;;5067006;28;1293;-81
2021/12/22 02:22:12;;;;;;;;;;;;;;;;;;5069578;28;1890;-81
2021/12/22 02:24:38;;;;;;;;;;;;;;;;;;5068004;28;1188;-81
2021/12/22 02:27:09;;;;;;;;;;;;;;;;;;5070006;28;1436;-81
2021/12/22 02:29:36;;;;;;;;;;;;;;;;;;5089604;28;1354;-82
2021/12/22 02:32:15;;;;;;;;;;;;;;;;;;5051419;28;1385;-81
2021/12/22 02:34:44;;;;;;;;;;;;;;;;;;5066508;28;1185;-82
2021/12/22 02:37:12;;;;;;;;;;;;;;;;;;5069289;28;1384;-82
2021/12/22 02:39:44;;;;;;;;;;;;;;;;;;5067399;28;1230;-81
2021/12/22 02:42:12;;;;;;;;;;;;;;;;;;5066432;28;1910;-81
2021/12/22 02:44:37;;;;;;;;;;;;;;;;;;5065543;28;1192;-81
2021/12/22 02:47:19;;;;;;;;;;;;;;;;;;5049438;28;1387;-82
2021/12/22 02:49:45;;;;;;;;;;;;;;;;;;5066091;28;1279;-82
2021/12/22 02:52:10;;;;;;;;;;;;;;;;;;5066375;28;1192;-81
2021/12/22 02:54:43;;;;;;;;;;;;;;;;;;5067221;28;1246;-81
2021/12/22 02:57:22;;;;;;;;;;;;;;;;;;5086743;28;1065;-82
2021/12/22 03:00:11;;;;;;;;;;;;;;;;;;5065565;28;1217;-82
2021/12/22 03:02:45;;;;;;;;;;;;;;;;;;5067205;28;2287;-82
2021/12/22 03:05:10;;;;;;;;;;;;;;;;;;5067845;28;1214;-82
2021/12/22 03:07:37;;;;;;;;;;;;;;;;;;5067666;28;1513;-82
2021/12/22 03:10:07;;;;;;;;;;;;;;;;;;5066236;28;1243;-81
2021/12/22 03:12:35;;;;;;;;;;;;;;;;;;5066902;28;1208;-82
2021/12/22 03:15:02;;;;;;;;;;;;;;;;;;5083674;28;1216;-82
2021/12/22 03:17:27;;;;;;;;;;;;;;;;;;5082968;28;1550;-81
2021/12/22 03:19:53;;;;;;;;;;;;;;;;;;5049364;28;1188;-82
2021/12/22 03:22:20;;;;;;;;;;;;;;;;;;5067574;28;1893;-82
2021/12/22 03:24:47;;;;;;;;;;;;;;;;;;5066377;28;1278;-80
2021/12/22 03:27:13;;;;;;;;;;;;;;;;;;5067022;28;1232;-82
2021/12/22 03:29:38;;;;;;;;;;;;;;;;;;5086121;28;1156;-82
2021/12/22 03:32:05;;;;;;;;;;;;;;;;;;5064740;28;1093;-83
2021/12/22 03:34:31;;;;;;;;;;;;;;;;;;5050971;28;1149;-82
2021/12/22 03:36:57;;;;;;;;;;;;;;;;;;5049213;28;1221;-81
2021/12/22 03:39:22;;;;;;;;;;;;;;;;;;5050437;28;1199;-81
2021/12/22 03:41:48;;;;;;;;;;;;;;;;;;5067041;28;1972;-80
2021/12/22 03:44:14;;;;;;;;;;;;;;;;;;5085732;28;1291;-82
2021/12/22 03:46:39;;;;;;;;;;;;;;;;;;5051647;28;1210;-81
2021/12/22 03:49:05;;;;;;;;;;;;;;;;;;5049039;28;1300;-81
2021/12/22 03:51:31;;;;;;;;;;;;;;;;;;5051661;28;1263;-82
2021/12/22 03:53:56;;;;;;;;;;;;;;;;;;5065680;28;1267;-82
2021/12/22 03:56:21;;;;;;;;;;;;;;;;;;5067144;28;1246;-82
2021/12/22 03:58:48;;;;;;;;;;;;;;;;;;5049595;28;1220;-80
2021/12/22 04:01:14;;;;;;;;;;;;;;;;;;5068956;28;1238;-81
2021/12/22 04:03:42;;;;;;;;;;;;;;;;;;5084097;28;1886;-81
2021/12/22 04:06:07;;;;;;;;;;;;;;;;;;5067465;28;1250;-81
2021/12/22 04:08:33;;;;;;;;;;;;;;;;;;5070703;28;1192;-82
2021/12/22 04:10:58;;;;;;;;;;;;;;;;;;5069940;28;1172;-82
2021/12/22 04:13:23;;;;;;;;;;;;;;;;;;5069706;28;1272;-82
2021/12/22 04:15:49;;;;;;;;;;;;;;;;;;5069025;28;1316;-82
2021/12/22 04:18:15;;;;;;;;;;;;;;;;;;5067502;28;1222;-82
2021/12/22 04:20:40;;;;;;;;;;;;;;;;;;5068707;28;1410;-81
2021/12/22 04:23:06;;;;;;;;;;;;;;;;;;5088924;28;1898;-82
2021/12/22 04:25:32;;;;;;;;;;;;;;;;;;5055018;28;1314;-82
2021/12/22 04:28:04;;;;;;;;;;;;;;;;;;5071359;28;1167;-80
2021/12/22 04:30:29;;;;;;;;;;;;;;;;;;5069395;28;1183;-80
2021/12/22 04:32:55;;;;;;;;;;;;;;;;;;5069532;28;1315;-82
2021/12/22 04:35:21;;;;;;;;;;;;;;;;;;5071202;28;1225;-81
2021/12/22 04:37:46;;;;;;;;;;;;;;;;;;5052183;28;1288;-82
2021/12/22 04:40:11;;;;;;;;;;;;;;;;;;5069863;28;1164;-81
2021/12/22 04:42:37;;;;;;;;;;;;;;;;;;5064831;28;1969;-81
2021/12/22 04:45:05;;;;;;;;;;;;;;;;;;5077262;28;1208;-82
2021/12/22 04:47:31;;;;;;;;;;;;;;;;;;5048325;28;1204;-80
2021/12/22 04:49:56;;;;;;;;;;;;;;;;;;5064038;28;1217;-81
2021/12/22 04:52:24;;;;;;;;;;;;;;;;;;5052826;28;1203;-81
2021/12/22 04:55:03;;;;;;;;;;;;;;;;;;5042780;28;1340;-81
2021/12/22 04:57:29;;;;;;;;;;;;;;;;;;5089438;28;1276;-82
2021/12/22 04:59:54;;;;;;;;;;;;;;;;;;5063307;28;1221;-81
2021/12/22 05:02:20;;;;;;;;;;;;;;;;;;5048760;28;1898;-81
2021/12/22 05:04:45;;;;;;;;;;;;;;;;;;5050309;28;1283;-83
2021/12/22 05:07:11;;;;;;;;;;;;;;;;;;5060805;28;1300;-82
2021/12/22 05:09:36;;;;;;;;;;;;;;;;;;5071256;28;1125;-81
2021/12/22 05:12:01;;;;;;;;;;;;;;;;;;5049490;28;1145;-81
2021/12/22 05:14:27;;;;;;;;;;;;;;;;;;5067887;28;1232;-82
2021/12/22 05:17:02;;;;;;;;;;;;;;;;;;5039756;28;1171;-81
2021/12/22 05:19:27;;;;;;;;;;;;;;;;;;5069836;28;1236;-82
2021/12/22 05:21:54;;;;;;;;;;;;;;;;;;5063821;28;1898;-80
2021/12/22 05:24:19;;;;;;;;;;;;;;;;;;5063036;28;1231;-82
2021/12/22 05:26:44;;;;;;;;;;;;;;;;;;5066754;28;1152;-82
2021/12/22 05:29:11;;;;;;;;;;;;;;;;;;5029429;28;1199;-82
2021/12/22 05:31:37;;;;;;;;;;;;;;;;;;5049522;28;1216;-82
2021/12/22 05:34:02;;;;;;;;;;;;;;;;;;5051862;28;1339;-82
2021/12/22 05:36:28;;;;;;;;;;;;;;;;;;5070242;28;1125;-82
2021/12/22 05:38:56;;;;;;;;;;;;;;;;;;5069313;28;1125;-83
2021/12/22 05:41:22;;;;;;;;;;;;;;;;;;5041799;28;1362;-83
2021/12/22 05:43:47;;;;;;;;;;;;;;;;;;5031673;28;1961;-82
2021/12/22 05:46:13;;;;;;;;;;;;;;;;;;5039637;28;1178;-82
2021/12/22 05:48:38;;;;;;;;;;;;;;;;;;5048028;28;1283;-82
2021/12/22 05:51:03;;;;;;;;;;;;;;;;;;5032373;28;1303;-82
2021/12/22 05:53:29;;;;;;;;;;;;;;;;;;5069503;28;1165;-82
2021/12/22 05:55:57;;;;;;;;;;;;;;;;;;5063261;28;1180;-83
2021/12/22 05:58:23;;;;;;;;;;;;;;;;;;5060687;28;1444;-83
2021/12/22 06:00:48;;;;;;;;;;;;;;;;;;5048564;28;1373;-82
2021/12/22 06:03:14;;;;;;;;;;;;;;;;;;5060439;28;1909;-83
2021/12/22 06:05:40;;;;;;;;;;;;;;;;;;5085922;28;1108;-82
2021/12/22 06:08:05;;;;;;;;;;;;;;;;;;5046564;28;1088;-82
2021/12/22 06:10:34;;;;;;;;;;;;;;;;;;5038269;28;1373;-83
2021/12/22 06:13:00;;;;;;;;;;;;;;;;;;5035350;28;1234;-82
2021/12/22 06:15:26;;;;;;;;;;;;;;;;;;5064110;28;1256;-82
2021/12/22 06:17:55;;;;;;;;;;;;;;;;;;5085889;28;1124;-82
2021/12/22 06:20:21;;;;;;;;;;;;;;;;;;5051479;28;1347;-82
2021/12/22 06:22:46;;;;;;;;;;;;;;;;;;5059896;28;1953;-83
2021/12/22 06:25:11;;;;;;;;;;;;;;;;;;5047493;28;1248;-83
2021/12/22 06:27:36;;;;;;;;;;;;;;;;;;5081017;28;1213;-83
2021/12/22 06:30:05;;;;;;;;;;;;;;;;;;5054742;28;1333;-83
2021/12/22 06:32:30;;;;;;;;;;;;;;;;;;5058783;28;1151;-77
2021/12/22 06:34:55;;;;;;;;;;;;;;;;;;5035790;28;1245;-83
2021/12/22 06:37:21;;;;;;;;;;;;;;;;;;5061874;28;1203;-84
2021/12/22 06:39:46;;;;;;;;;;;;;;;;;;5047225;28;1217;-83
2021/12/22 06:42:11;;;;;;;;;;;;;;;;;;5036250;28;1915;-83
2021/12/22 06:44:37;;;;;;;;;;;;;;;;;;5054783;28;1180;-86
2021/12/22 06:47:15;;;;;;;;;;;;;;;;;;5085172;28;1200;-84
2021/12/22 06:49:41;;;;;;;;;;;;;;;;;;5045918;28;1305;-84
2021/12/22 06:52:06;;;;;;;;;;;;;;;;;;5084077;28;1133;-84
2021/12/22 06:54:32;;;;;;;;;;;;;;;;;;5067278;28;1193;-85
2021/12/22 06:56:57;;;;;;;;;;;;;;;;;;5049313;28;1229;-84
2021/12/22 06:59:22;;;;;;;;;;;;;;;;;;5065855;28;1224;-85
2021/12/22 07:01:50;;;;;;;;;;;;;;;;;;5046326;28;1953;-84
2021/12/22 07:04:17;;;;;;;;;;;;;;;;;;5050206;28;1261;-84
2021/12/22 07:06:43;;;;;;;;;;;;;;;;;;5067310;28;1272;-84
2021/12/22 07:09:08;;;;;;;;;;;;;;;;;;5067287;28;1212;-83
2021/12/22 07:11:34;;;;;;;;;;;;;;;;;;5066148;28;1317;-84
2021/12/22 07:14:00;;;;;;;;;;;;;;;;;;5066889;28;1253;-83
2021/12/22 07:16:25;;;;;;;;;;;;;;;;;;5042267;28;1384;-84
2021/12/22 07:18:51;;;;;;;;;;;;;;;;;;5065231;28;1177;-84
2021/12/22 07:21:16;;;;;;;;;;;;;;;;;;5051749;28;1195;-85
2021/12/22 07:24:00;;;;;;;;;;;;;;;;;;5076474;28;1905;-82
2021/12/22 07:26:25;;;;;;;;;;;;;;;;;;5082174;28;1317;-85
2021/12/22 07:28:51;;;;;;;;;;;;;;;;;;5093871;28;1275;-82
2021/12/22 07:31:23;;;;;;;;;;;;;;;;;;5038708;28;1549;-86
2021/12/22 07:33:55;;;;;;;;;;;;;;;;;;5045685;28;1197;-85
2021/12/22 07:36:30;;;;;;;;;;;;;;;;;;5049699;28;1338;-86
2021/12/22 07:39:03;;;;;;;;;;;;;;;;;;5040408;28;1161;-83
2021/12/22 07:41:28;;;;;;;;;;;;;;;;;;5056935;28;1152;-85
2021/12/22 07:43:56;;;;;;;;;;;;;;;;;;5036894;28;1969;-83
2021/12/22 07:46:22;;;;;;;;;;;;;;;;;;5029725;28;1295;-84
2021/12/22 07:48:47;;;;;;;;;;;;;;;;;;5037690;28;1198;-84
2021/12/22 07:51:13;;;;;;;;;;;;;;;;;;5051883;28;1296;-85
2021/12/22 07:53:38;;;;;;;;;;;;;;;;;;5047150;28;1216;-84
2021/12/22 07:56:03;;;;;;;;;;;;;;;;;;5060410;28;1300;-85
2021/12/22 07:58:29;;;;;;;;;;;;;;;;;;5033259;28;1261;-84
2021/12/22 08:00:55;;;;;;;;;;;;;;;;;;5028527;28;1169;-83
2021/12/22 08:03:21;;;;;;;;;;;;;;;;;;5028753;28;1893;-82
2021/12/22 08:05:46;;;;;;;;;;;;;;;;;;5031680;28;1326;-84
2021/12/22 08:08:12;;;;;;;;;;;;;;;;;;5056404;28;1191;-83
2021/12/22 08:10:38;;;;;;;;;;;;;;;;;;5069116;28;1369;-83
2021/12/22 08:13:03;;;;;;;;;;;;;;;;;;5055300;28;1228;-85
2021/12/22 08:15:29;;;;;;;;;;;;;;;;;;5054123;28;1324;-83
2021/12/22 08:17:54;;;;;;;;;;;;;;;;;;5087358;28;1204;-83
2021/12/22 08:20:20;;;;;;;;;;;;;;;;;;5053974;28;1281;-83
2021/12/22 08:22:46;;;;;;;;;;;;;;;;;;5067443;28;1972;-84
2021/12/22 08:25:17;;;;;;;;;;;;;;;;;;5049669;28;1297;-83
2021/12/22 08:27:45;;;;;;;;;;;;;;;;;;5073577;28;1133;-83
2021/12/22 08:30:14;;;;;;;;;;;;;;;;;;5070061;28;1245;-84
2021/12/22 08:32:40;;;;;;;;;;;;;;;;;;5066926;28;1231;-82
2021/12/22 08:35:07;;;;;;;;;;;;;;;;;;5089165;28;1188;-85
2021/12/22 08:40:18;;;;;;;;;;;;;;;;;;5081909;28;1077;-84
2021/12/22 08:42:44;;;;;;;;;;;;;;;;;;5049899;28;1926;-85
2021/12/22 08:45:09;;;;;;;;;;;;;;;;;;5043355;28;1212;-83
2021/12/22 08:47:35;;;;;;;;;;;;;;;;;;5087122;28;1137;-85
2021/12/22 08:50:00;;;;;;;;;;;;;;;;;;5066385;28;1169;-83
2021/12/22 08:52:25;;;;;;;;;;;;;;;;;;5063811;28;1228;-84
2021/12/22 08:54:51;;;;;;;;;;;;;;;;;;5071743;28;1145;-83
2021/12/22 08:57:18;;;;;;;;;;;;;;;;;;5067849;28;1173;-84
2021/12/22 08:59:43;;;;;;;;;;;;;;;;;;5059992;28;1180;-84
2021/12/22 09:02:13;;;;;;;;;;;;;;;;;;5065530;28;1886;-83
2021/12/22 09:04:40;;;;;;;;;;;;;;;;;;5059584;28;1364;-81
2021/12/22 09:07:05;;;;;;;;;;;;;;;;;;5066917;28;1163;-84
2021/12/22 09:09:30;;;;;;;;;;;;;;;;;;5065744;28;1126;-84
2021/12/22 09:11:56;;;;;;;;;;;;;;;;;;5065965;28;1284;-83
2021/12/22 09:14:21;;;;;;;;;;;;;;;;;;5064227;28;1192;-84
2021/12/22 09:16:48;;;;;;;;;;;;;;;;;;5066377;28;1168;-84
2021/12/22 09:19:15;;;;;;;;;;;;;;;;;;5064688;28;1301;-85
2021/12/22 09:21:40;;;;;;;;;;;;;;;;;;5047178;28;1945;-84
2021/12/22 09:24:05;;;;;;;;;;;;;;;;;;5053250;28;1195;-84
2021/12/22 09:26:31;;;;;;;;;;;;;;;;;;5055057;28;1303;-85
2021/12/22 09:28:57;;;;;;;;;;;;;;;;;;5067201;28;1231;-84
2021/12/22 09:31:22;;;;;;;;;;;;;;;;;;5066603;28;1225;-84
2021/12/22 09:33:48;;;;;;;;;;;;;;;;;;5060103;28;1225;-84
2021/12/22 09:36:14;;;;;;;;;;;;;;;;;;5071394;28;1350;-84
2021/12/22 09:38:39;;;;;;;;;;;;;;;;;;5070970;28;1294;-86
2021/12/22 09:41:07;;;;;;;;;;;;;;;;;;5070024;28;1214;-84
2021/12/22 09:43:33;;;;;;;;;;;;;;;;;;5067742;28;1995;-84
2021/12/22 09:46:04;;;;;;;;;;;;;;;;;;5046619;28;1185;-84
2021/12/22 09:52:17;;;;;;;;;;;;;;;;;;5079196;28;1280;-84
2021/12/22 09:53:45;;;;;;;;;;;;;;;;;;5085878;28;954;-83
2021/12/22 09:56:11;;;;;;;;;;;;;;;;;;5069339;28;1471;-82
2021/12/22 09:58:39;;;;;;;;;;;;;;;;;;5071955;28;1278;-83
2021/12/22 10:01:04;;;;;;;;;;;;;;;;;;5072549;28;1173;-84
2021/12/22 10:03:31;;;;;;;;;;;;;;;;;;5053868;28;1901;-83
2021/12/22 10:05:56;;;;;;;;;;;;;;;;;;5057742;28;1389;-83
2021/12/22 10:08:24;;;;;;;;;;;;;;;;;;5068792;28;1300;-83
2021/12/22 10:11:01;;;;;;;;;;;;;;;;;;5070054;28;1384;-83
2021/12/22 10:13:27;;;;;;;;;;;;;;;;;;5086244;28;1053;-82
2021/12/22 10:15:52;;;;;;;;;;;;;;;;;;5070574;28;1315;-82
2021/12/22 10:18:24;;;;;;;;;;;;;;;;;;5091021;28;1215;-81
2021/12/22 10:20:51;;;;;;;;;;;;;;;;;;5072022;28;1164;-81
2021/12/22 10:23:23;;;;;;;;;;;;;;;;;;5068820;28;1926;-81
2021/12/22 10:25:56;;;;;;;;;;;;;;;;;;5077028;28;1374;-81
2021/12/22 10:28:23;;;;;;;;;;;;;;;;;;5067286;28;1236;-81
2021/12/22 10:30:55;;;;;;;;;;;;;;;;;;5072046;28;1208;-82
2021/12/22 10:33:22;;;;;;;;;;;;;;;;;;5071602;28;1279;-82
2021/12/22 10:35:49;;;;;;;;;;;;;;;;;;5083600;28;1290;-81
2021/12/22 10:38:15;;;;;;;;;;;;;;;;;;5093565;28;1224;-81
2021/12/22 10:40:42;;;;;;;;;;;;;;;;;;5092398;28;1199;-82
2021/12/22 10:43:13;;;;;;;;;;;;;;;;;;5110073;28;1958;-83
2021/12/22 10:45:38;;;;;;;;;;;;;;;;;;5089046;28;1322;-84
2021/12/22 10:50:54;;;;;;;;;;;;;;;;;;5108763;28;926;-81
2021/12/22 10:53:19;;;;;;;;;;;;;;;;;;5084805;28;1216;-82
2021/12/22 10:55:45;;;;;;;;;;;;;;;;;;5071748;28;1148;-82
2021/12/22 10:58:19;;;;;;;;;;;;;;;;;;5092821;28;1269;-82
2021/12/22 11:00:58;;;;;;;;;;;;;;;;;;5089175;28;1165;-82
2021/12/22 11:03:30;;;;;;;;;;;;;;;;;;5091060;28;1874;-82
2021/12/22 11:05:55;;;;;;;;;;;;;;;;;;5092062;28;1171;-82
2021/12/22 11:08:21;;;;;;;;;;;;;;;;;;5110034;28;999;-82
2021/12/22 11:10:47;;;;;;;;;;;;;;;;;;5091538;28;1262;-82
2021/12/22 11:13:17;;;;;;;;;;;;;;;;;;5078088;28;1211;-82
2021/12/22 11:15:43;;;;;;;;;;;;;;;;;;5074385;28;1233;-82
2021/12/22 11:18:10;;;;;;;;;;;;;;;;;;5076985;28;1307;-80
2021/12/22 11:20:35;;;;;;;;;;;;;;;;;;5073841;28;1435;-81
2021/12/22 11:23:02;;;;;;;;;;;;;;;;;;5054284;28;1941;-81
2021/12/22 11:25:32;;;;;;;;;;;;;;;;;;5056019;28;1196;-80
2021/12/22 11:27:58;;;;;;;;;;;;;;;;;;5071176;28;1125;-82
2021/12/22 11:30:26;;;;;;;;;;;;;;;;;;5065716;28;1289;-81
2021/12/22 11:32:52;;;;;;;;;;;;;;;;;;5053345;28;1207;-81
2021/12/22 11:35:17;;;;;;;;;;;;;;;;;;5070259;28;1205;-81
2021/12/22 11:37:43;;;;;;;;;;;;;;;;;;5069657;28;1210;-81
2021/12/22 11:40:10;;;;;;;;;;;;;;;;;;5067958;28;1314;-81
2021/12/22 11:42:39;;;;;;;;;;;;;;;;;;5068186;28;1898;-81
2021/12/22 11:45:10;;;;;;;;;;;;;;;;;;5052414;28;1278;-82
2021/12/22 11:47:36;;;;;;;;;;;;;;;;;;5067919;28;1275;-82
2021/12/22 11:50:03;;;;;;;;;;;;;;;;;;5069125;28;1171;-81
2021/12/22 11:52:38;;;;;;;;;;;;;;;;;;5069741;28;1216;-81
2021/12/22 11:55:07;;;;;;;;;;;;;;;;;;5064051;28;1299;-80
2021/12/22 11:57:36;;;;;;;;;;;;;;;;;;5067880;28;1214;-80
2021/12/22 12:00:20;;;;;;;;;;;;;;;;;;5086369;28;1113;-81
2021/12/22 12:02:45;;;;;;;;;;;;;;;;;;5068188;28;1953;-81
2021/12/22 12:05:13;;;;;;;;;;;;;;;;;;5051744;28;1303;-82
2021/12/22 12:07:40;;;;;;;;;;;;;;;;;;5067869;28;1273;-81
2021/12/22 12:10:24;;;;;;;;;;;;;;;;;;5069041;28;1209;-81
2021/12/22 12:12:52;;;;;;;;;;;;;;;;;;5067686;28;1175;-80
2021/12/22 12:15:36;;;;;;;;;;;;;;;;;;5067487;28;1424;-81
2021/12/22 12:23:31;;;;;;;;;;;;;;;;;;5073054;28;1898;-81
2021/12/22 12:25:58;;;;;;;;;;;;;;;;;;5051349;28;1192;-80
2021/12/22 12:28:24;;;;;;;;;;;;;;;;;;5070018;28;1227;-82
2021/12/22 12:30:59;;;;;;;;;;;;;;;;;;5050184;28;1313;-81
2021/12/22 12:33:27;;;;;;;;;;;;;;;;;;5061761;28;1323;-81
2021/12/22 12:36:06;;;;;;;;;;;;;;;;;;5099094;28;1365;-81
2021/12/22 12:38:41;;;;;;;;;;;;;;;;;;5089238;28;1333;-81
2021/12/22 12:41:11;;;;;;;;;;;;;;;;;;5102189;28;1406;-80
2021/12/22 12:44:03;;;;;;;;;;;;;;;;;;5096493;27;1964;-82
2021/12/22 12:46:39;;;;;;;;;;;;;;;;;;5109601;27;1300;-82
2021/12/22 12:49:07;;;;;;;;;;;;;;;;;;5091419;28;1254;-82
2021/12/22 12:51:33;;;;;;;;;;;;;;;;;;5101382;28;1297;-83
2021/12/22 12:54:02;;;;;;;;;;;;;;;;;;5095482;27;1218;-83
2021/12/22 12:56:31;;;;;;;;;;;;;;;;;;5120857;27;1250;-83
2021/12/22 12:59:02;;;;;;;;;;;;;;;;;;5071231;28;1192;-83
2021/12/22 13:01:45;;;;;;;;;;;;;;;;;;5121896;27;1396;-82
2021/12/22 13:04:22;;;;;;;;;;;;;;;;;;5099560;28;1882;-84
2021/12/22 13:06:48;;;;;;;;;;;;;;;;;;5103082;27;1207;-81
2021/12/22 13:09:23;;;;;;;;;;;;;;;;;;5107737;28;1175;-82
2021/12/22 13:12:02;;;;;;;;;;;;;;;;;;5099290;28;1207;-82
2021/12/22 13:17:16;;;;;;;;;;;;;;;;;;5117930;27;1001;-81
2021/12/22 13:19:47;;;;;;;;;;;;;;;;;;5098593;28;1300;-82
2021/12/22 13:22:19;;;;;;;;;;;;;;;;;;5101816;27;1960;-82
2021/12/22 13:24:45;;;;;;;;;;;;;;;;;;5105228;27;1459;-81
2021/12/22 13:27:10;;;;;;;;;;;;;;;;;;5111437;27;1276;-82
2021/12/22 13:29:36;;;;;;;;;;;;;;;;;;5085743;28;1220;-83
2021/12/22 13:32:15;;;;;;;;;;;;;;;;;;5081191;27;1377;-82
2021/12/22 13:34:42;;;;;;;;;;;;;;;;;;5107796;28;1012;-81
2021/12/22 13:37:08;;;;;;;;;;;;;;;;;;5076632;27;1263;-81
2021/12/22 13:39:45;;;;;;;;;;;;;;;;;;5075595;28;1251;-81
2021/12/22 13:42:11;;;;;;;;;;;;;;;;;;5089150;28;1906;-81
2021/12/22 13:44:37;;;;;;;;;;;;;;;;;;5074929;27;1303;-82
2021/12/22 13:47:02;;;;;;;;;;;;;;;;;;5108013;27;1376;-82
2021/12/22 13:49:28;;;;;;;;;;;;;;;;;;5125979;27;1084;-83
2021/12/22 13:51:53;;;;;;;;;;;;;;;;;;5109226;27;1096;-83
2021/12/22 13:54:20;;;;;;;;;;;;;;;;;;5128274;27;1211;-84
2021/12/22 13:56:48;;;;;;;;;;;;;;;;;;5096629;28;1325;-82
2021/12/22 13:59:14;;;;;;;;;;;;;;;;;;5105745;28;1303;-83
2021/12/22 14:01:44;;;;;;;;;;;;;;;;;;5095520;28;1269;-82
2021/12/22 14:04:20;;;;;;;;;;;;;;;;;;5088580;28;1893;-83
2021/12/22 14:06:47;;;;;;;;;;;;;;;;;;5090420;28;1242;-83
2021/12/22 14:09:12;;;;;;;;;;;;;;;;;;5090124;28;1344;-85
2021/12/22 14:11:42;;;;;;;;;;;;;;;;;;5111355;27;1116;-85
2021/12/22 14:14:28;;;;;;;;;;;;;;;;;;5093270;28;1316;-83
2021/12/22 14:17:02;;;;;;;;;;;;;;;;;;5097320;27;1288;-84
2021/12/22 14:19:28;;;;;;;;;;;;;;;;;;5108415;27;1201;-83
2021/12/22 14:22:08;;;;;;;;;;;;;;;;;;5073525;28;1945;-84
2021/12/22 14:24:38;;;;;;;;;;;;;;;;;;5108977;28;1168;-84
2021/12/22 14:27:05;;;;;;;;;;;;;;;;;;5089823;27;1241;-83
2021/12/22 14:29:31;;;;;;;;;;;;;;;;;;5107592;28;1467;-82
2021/12/22 14:32:02;;;;;;;;;;;;;;;;;;5105698;27;1261;-84
2021/12/22 14:34:28;;;;;;;;;;;;;;;;;;5107194;28;1183;-83
2021/12/22 14:36:54;;;;;;;;;;;;;;;;;;5096004;27;1318;-82
2021/12/22 14:39:19;;;;;;;;;;;;;;;;;;5095985;27;1151;-84
2021/12/22 14:41:48;;;;;;;;;;;;;;;;;;5107920;28;1073;-83
2021/12/22 14:44:31;;;;;;;;;;;;;;;;;;5104965;27;1975;-84
2021/12/22 14:46:57;;;;;;;;;;;;;;;;;;5107249;27;1166;-83
2021/12/22 14:49:23;;;;;;;;;;;;;;;;;;5092919;27;1148;-84
2021/12/22 14:52:03;;;;;;;;;;;;;;;;;;5098444;28;1207;-83
2021/12/22 14:54:32;;;;;;;;;;;;;;;;;;5087732;28;1269;-82
2021/12/22 14:56:57;;;;;;;;;;;;;;;;;;5106647;27;1186;-83
2021/12/22 14:59:23;;;;;;;;;;;;;;;;;;5091484;28;1379;-84
2021/12/22 15:01:53;;;;;;;;;;;;;;;;;;5086631;27;1211;-83
2021/12/22 15:04:18;;;;;;;;;;;;;;;;;;5095688;27;1187;-84
2021/12/22 15:06:44;;;;;;;;;;;;;;;;;;5120124;27;1124;-82
2021/12/22 15:09:10;;;;;;;;;;;;;;;;;;5105864;27;1202;-83
2021/12/22 15:11:36;;;;;;;;;;;;;;;;;;5120811;27;1104;-81
2021/12/22 15:14:02;;;;;;;;;;;;;;;;;;5102408;27;1176;-84
2021/12/22 15:16:28;;;;;;;;;;;;;;;;;;5091742;28;1491;-83
2021/12/22 15:18:57;;;;;;;;;;;;;;;;;;5105049;27;1381;-83
2021/12/22 15:21:23;;;;;;;;;;;;;;;;;;5098033;28;1307;-84
2021/12/22 15:23:49;;;;;;;;;;;;;;;;;;5087009;28;1985;-84
2021/12/22 15:26:18;;;;;;;;;;;;;;;;;;5088598;28;1154;-83
2021/12/22 15:29:04;;;;;;;;;;;;;;;;;;5098920;28;1302;-84
2021/12/22 15:31:29;;;;;;;;;;;;;;;;;;5088259;28;1255;-84
2021/12/22 15:33:56;;;;;;;;;;;;;;;;;;5084234;28;1231;-83
2021/12/22 15:36:21;;;;;;;;;;;;;;;;;;5084094;28;1276;-85
2021/12/22 15:38:47;;;;;;;;;;;;;;;;;;5071147;28;1359;-84
2021/12/22 15:41:12;;;;;;;;;;;;;;;;;;5088544;28;1278;-83
2021/12/22 15:43:37;;;;;;;;;;;;;;;;;;5051086;28;1934;-79
2021/12/22 15:46:03;;;;;;;;;;;;;;;;;;5065417;28;1125;-86
2021/12/22 15:48:28;;;;;;;;;;;;;;;;;;5065960;28;1144;-83
2021/12/22 15:50:56;;;;;;;;;;;;;;;;;;5050863;28;1319;-83
2021/12/22 15:53:22;;;;;;;;;;;;;;;;;;5050936;28;1117;-85
2021/12/22 15:55:47;;;;;;;;;;;;;;;;;;5080404;28;1246;-85
2021/12/22 15:58:12;;;;;;;;;;;;;;;;;;5086412;28;1128;-83
2021/12/22 16:00:39;;;;;;;;;;;;;;;;;;5060977;28;1285;-84
2021/12/22 16:03:04;;;;;;;;;;;;;;;;;;5046540;28;1920;-84
2021/12/22 16:05:30;;;;;;;;;;;;;;;;;;5050555;28;1211;-80
2021/12/22 16:07:57;;;;;;;;;;;;;;;;;;5066778;28;1363;-83
2021/12/22 16:10:23;;;;;;;;;;;;;;;;;;5067672;28;1353;-83
2021/12/22 16:12:48;;;;;;;;;;;;;;;;;;5102034;28;1345;-83
2021/12/22 16:15:14;;;;;;;;;;;;;;;;;;5083187;28;1089;-83
2021/12/22 16:17:41;;;;;;;;;;;;;;;;;;5066693;28;1187;-83
2021/12/22 16:20:07;;;;;;;;;;;;;;;;;;5069531;28;1310;-82
2021/12/22 16:22:33;;;;;;;;;;;;;;;;;;5089777;28;1984;-81
2021/12/22 16:24:58;;;;;;;;;;;;;;;;;;5071325;28;1177;-82
2021/12/22 16:27:24;;;;;;;;;;;;;;;;;;5073653;28;1490;-82
2021/12/22 16:29:49;;;;;;;;;;;;;;;;;;5083474;28;1228;-81
2021/12/22 16:32:15;;;;;;;;;;;;;;;;;;5049421;28;1152;-82
2021/12/22 16:34:40;;;;;;;;;;;;;;;;;;5066805;28;1253;-82
2021/12/22 16:37:06;;;;;;;;;;;;;;;;;;5064466;28;1309;-81
2021/12/22 16:39:31;;;;;;;;;;;;;;;;;;5085702;28;1132;-82
2021/12/22 16:42:00;;;;;;;;;;;;;;;;;;5066738;28;1218;-80
2021/12/22 16:44:27;;;;;;;;;;;;;;;;;;5063895;28;1151;-81
2021/12/22 16:46:52;;;;;;;;;;;;;;;;;;5060717;28;1183;-81
2021/12/22 16:49:18;;;;;;;;;;;;;;;;;;5065122;28;1287;-82
2021/12/22 16:51:43;;;;;;;;;;;;;;;;;;5067954;28;1230;-81
2021/12/22 16:54:08;;;;;;;;;;;;;;;;;;5048010;28;1396;-81
2021/12/22 16:56:34;;;;;;;;;;;;;;;;;;5087135;28;1164;-80
2021/12/22 16:59:01;;;;;;;;;;;;;;;;;;5049947;28;1426;-80
2021/12/22 17:01:26;;;;;;;;;;;;;;;;;;5066025;28;1125;-82
2021/12/22 17:03:52;;;;;;;;;;;;;;;;;;5047434;28;1920;-81
2021/12/22 17:06:17;;;;;;;;;;;;;;;;;;5048184;28;1184;-79
2021/12/22 17:08:46;;;;;;;;;;;;;;;;;;5049400;28;1337;-80
2021/12/22 17:11:11;;;;;;;;;;;;;;;;;;5051892;28;1243;-79
2021/12/22 17:13:37;;;;;;;;;;;;;;;;;;5067380;28;1121;-79
2021/12/22 17:16:03;;;;;;;;;;;;;;;;;;5079782;28;1144;-79
2021/12/22 17:18:31;;;;;;;;;;;;;;;;;;5047158;28;1318;-80
2021/12/22 17:20:57;;;;;;;;;;;;;;;;;;5045699;28;1093;-79
2021/12/22 17:23:22;;;;;;;;;;;;;;;;;;5048196;28;1977;-79
2021/12/22 17:25:48;;;;;;;;;;;;;;;;;;5067393;28;1372;-78
2021/12/22 17:28:13;;;;;;;;;;;;;;;;;;5048416;28;1207;-78
2021/12/22 17:30:38;;;;;;;;;;;;;;;;;;5084242;28;1153;-77